Time;durP1;ratioP1;P1;durP2;ratioP2;P2;SDS_P1;SDS_P2;PMS_P1;PMS_P2;Temp;Humidity;BMP_temperature;BMP_pressure;BME280_temperature;BME280_humidity;BME280_pressure;Samples;Min_cycle;Max_cycle;Signal;HPM_P1;HPM_P2
2021/10/25 00:00:41;;;;;;;8.27;3.45;;;;;;;7.77;66.65;96340.78;5068697;28;20048;-52
2021/10/25 00:03:10;;;;;;;4.88;3.40;;;;;;;7.76;66.34;96339.19;5053419;28;20454;-50
2021/10/25 00:05:39;;;;;;;4.82;3.10;;;;;;;7.76;66.28;96347.25;5051718;28;20056;-49
2021/10/25 00:08:07;;;;;;;5.15;3.08;;;;;;;7.80;66.17;96340.16;5066813;28;20069;-48
2021/10/25 00:10:38;;;;;;;5.65;3.40;;;;;;;7.61;66.30;96333.06;5051397;28;20551;-48
2021/10/25 00:13:06;;;;;;;4.65;3.20;;;;;;;7.67;66.14;96344.47;5052007;28;20044;-51
2021/10/25 00:15:34;;;;;;;4.07;2.80;;;;;;;7.75;65.67;96341.09;5055377;28;20051;-53
2021/10/25 00:18:02;;;;;;;5.35;2.97;;;;;;;7.52;66.68;96353.72;5058565;28;20055;-52
2021/10/25 00:20:31;;;;;;;4.88;3.17;;;;;;;7.31;66.93;96350.63;5055738;28;20098;-51
2021/10/25 00:23:00;;;;;;;5.25;3.20;;;;;;;7.40;66.96;96354.22;5055485;28;20049;-52
2021/10/25 00:25:28;;;;;;;4.93;3.10;;;;;;;7.41;66.29;96355.81;5055196;28;20051;-49
2021/10/25 00:27:56;;;;;;;5.20;3.00;;;;;;;7.38;66.64;96352.94;5053486;28;20048;-48
2021/10/25 00:30:23;;;;;;;5.18;3.28;;;;;;;7.52;66.16;96347.53;5054994;28;20597;-53
2021/10/25 00:32:50;;;;;;;5.22;3.25;;;;;;;7.47;66.17;96341.16;5068954;28;20554;-49
2021/10/25 00:35:17;;;;;;;4.57;3.10;;;;;;;7.54;66.04;96338.06;5073060;28;20115;-51
2021/10/25 00:37:44;;;;;;;5.38;3.42;;;;;;;7.67;65.66;96337.22;5074979;28;20512;-50
2021/10/25 00:40:14;;;;;;;7.85;3.13;;;;;;;7.58;66.10;96339.03;5069019;28;20052;-50
2021/10/25 00:42:42;;;;;;;5.20;3.25;;;;;;;7.56;65.70;96335.06;5037975;28;20041;-49
2021/10/25 00:45:11;;;;;;;4.57;3.30;;;;;;;7.41;66.26;96333.47;5037250;28;20053;-51
2021/10/25 00:47:39;;;;;;;5.07;3.20;;;;;;;7.43;66.01;96329.38;5053986;28;20532;-50
2021/10/25 00:50:08;;;;;;;5.18;3.22;;;;;;;7.51;65.77;96333.28;5053640;28;20044;-49
2021/10/25 00:52:36;;;;;;;6.10;3.20;;;;;;;7.43;65.81;96325.91;5053796;28;20060;-52
2021/10/25 00:55:07;;;;;;;4.53;2.67;;;;;;;7.37;65.89;96324.41;5054670;28;20356;-52
2021/10/25 00:57:36;;;;;;;5.78;3.10;;;;;;;7.29;66.11;96333.22;5054901;28;20073;-52
2021/10/25 01:00:05;;;;;;;6.10;3.08;;;;;;;7.21;66.27;96332.81;5057103;28;20044;-49
2021/10/25 01:02:36;;;;;;;5.03;2.92;;;;;;;7.29;66.17;96323.25;5076101;28;20074;-49
2021/10/25 01:05:08;;;;;;;6.28;3.35;;;;;;;7.15;66.65;96325.94;5057548;28;20147;-51
2021/10/25 01:07:38;;;;;;;4.85;2.85;;;;;;;7.18;66.61;96327.22;5057668;28;20041;-51
2021/10/25 01:10:05;;;;;;;5.53;3.30;;;;;;;7.20;66.26;96325.81;5069640;28;20037;-50
2021/10/25 01:12:35;;;;;;;5.65;3.15;;;;;;;7.29;66.32;96328.63;5054707;28;20052;-48
2021/10/25 01:15:04;;;;;;;4.65;3.20;;;;;;;7.30;66.29;96335.59;5069223;28;20049;-52
2021/10/25 01:17:34;;;;;;;4.57;3.10;;;;;;;7.16;66.77;96327.53;5054336;28;20061;-49
2021/10/25 01:20:04;;;;;;;5.65;3.45;;;;;;;7.24;66.47;96331.41;5053367;28;20053;-49
2021/10/25 01:22:32;;;;;;;6.90;3.08;;;;;;;7.24;66.55;96329.50;5054795;28;20045;-51
2021/10/25 01:25:01;;;;;;;4.95;3.42;;;;;;;7.15;66.79;96325.94;5052882;28;20056;-50
2021/10/25 01:27:30;;;;;;;6.53;3.33;;;;;;;7.09;67.75;96327.16;5053072;28;20040;-50
2021/10/25 01:29:58;;;;;;;5.13;3.10;;;;;;;6.97;67.71;96324.94;5039563;28;20048;-51
2021/10/25 01:32:26;;;;;;;5.55;3.30;;;;;;;7.03;67.83;96326.44;5071864;28;20446;-52
2021/10/25 01:34:57;;;;;;;4.65;3.15;;;;;;;6.99;67.71;96322.75;5072607;28;20053;-53
2021/10/25 01:37:24;;;;;;;4.45;2.90;;;;;;;6.96;68.36;96319.88;5056584;28;20043;-49
2021/10/25 01:39:55;;;;;;;5.13;3.30;;;;;;;6.99;68.46;96313.91;5049378;28;20452;-51
2021/10/25 01:42:23;;;;;;;4.70;3.25;;;;;;;6.98;68.10;96320.34;5053084;28;20037;-49
2021/10/25 01:44:51;;;;;;;4.95;3.10;;;;;;;7.08;67.48;96305.91;5053691;28;20053;-48
2021/10/25 01:47:19;;;;;;;5.10;3.15;;;;;;;7.30;66.73;96310.56;5052863;28;20068;-50
2021/10/25 01:49:46;;;;;;;4.72;3.40;;;;;;;7.25;66.80;96312.28;5067301;28;20049;-51
2021/10/25 01:52:15;;;;;;;4.28;3.10;;;;;;;7.16;66.86;96307.91;5052723;28;20037;-49
2021/10/25 01:54:52;;;;;;;4.30;2.90;;;;;;;7.07;67.08;96315.88;5036006;28;20053;-50
2021/10/25 01:57:20;;;;;;;5.57;3.15;;;;;;;7.12;66.86;96313.09;5053588;28;20045;-53
2021/10/25 01:59:49;;;;;;;6.47;2.92;;;;;;;6.89;67.57;96311.38;5052111;28;20051;-49
2021/10/25 02:02:29;;;;;;;5.22;2.92;;;;;;;6.90;68.11;96304.94;5058807;28;20441;-49
2021/10/25 02:04:58;;;;;;;5.80;2.88;;;;;;;6.96;67.87;96301.84;5092290;28;20505;-49
2021/10/25 02:07:25;;;;;;;4.80;3.08;;;;;;;6.97;67.91;96310.69;5091845;28;20050;-49
2021/10/25 02:09:53;;;;;;;7.10;3.47;;;;;;;7.03;67.62;96301.44;5068879;28;20049;-50
2021/10/25 02:12:20;;;;;;;4.32;3.00;;;;;;;7.01;67.71;96285.56;5066149;22;20123;-50
2021/10/25 02:14:48;;;;;;;5.82;3.10;;;;;;;7.03;67.20;96293.38;5067510;28;20491;-43
2021/10/25 02:17:16;;;;;;;5.93;3.13;;;;;;;7.08;67.00;96295.13;5051956;28;20049;-44
2021/10/25 02:19:56;;;;;;;3.88;2.58;;;;;;;6.93;67.49;96288.19;5051659;28;20090;-45
2021/10/25 02:22:25;;;;;;;4.72;2.90;;;;;;;6.54;69.13;96292.97;5031902;28;20451;-48
2021/10/25 02:24:53;;;;;;;4.80;2.90;;;;;;;6.44;69.97;96297.72;5031626;28;20041;-50
2021/10/25 02:27:22;;;;;;;6.85;2.95;;;;;;;6.39;69.91;96305.88;5015976;28;20512;-46
2021/10/25 02:29:49;;;;;;;4.70;2.83;;;;;;;6.43;69.40;96291.53;5032766;28;20063;-45
2021/10/25 02:32:20;;;;;;;4.45;2.85;;;;;;;6.74;68.61;96286.41;5032091;28;20526;-45
2021/10/25 02:34:48;;;;;;;5.03;2.85;;;;;;;6.81;67.69;96285.19;5031345;28;20124;-46
2021/10/25 02:37:17;;;;;;;5.47;3.22;;;;;;;6.41;68.93;96292.94;5032293;28;20414;-47
2021/10/25 02:39:46;;;;;;;3.63;2.45;;;;;;;6.55;68.76;96288.38;5032578;28;20128;-46
2021/10/25 02:42:13;;;;;;;5.07;2.90;;;;;;;6.15;70.71;96290.69;5033538;28;20100;-45
2021/10/25 02:44:41;;;;;;;5.07;2.92;;;;;;;6.46;69.83;96287.47;5046681;28;20033;-45
2021/10/25 02:47:12;;;;;;;3.88;2.55;;;;;;;6.60;69.06;96285.59;5038087;28;20417;-45
2021/10/25 02:49:39;;;;;;;3.75;2.47;;;;;;;6.59;68.95;96286.69;5051890;28;20072;-45
2021/10/25 02:52:07;;;;;;;4.97;2.67;;;;;;;6.77;68.58;96283.09;5052042;28;20124;-45
2021/10/25 02:54:36;;;;;;;4.72;2.90;;;;;;;6.80;68.24;96289.78;5050876;28;20399;-49
2021/10/25 02:57:04;;;;;;;5.07;2.88;;;;;;;6.82;67.88;96292.16;5030988;28;20465;-47
2021/10/25 02:59:34;;;;;;;5.88;2.65;;;;;;;6.72;67.95;96291.25;5031215;28;20128;-50
2021/10/25 03:02:03;;;;;;;4.18;2.80;;;;;;;6.75;67.67;96293.34;5031375;28;20047;-45
2021/10/25 03:04:30;;;;;;;6.40;2.78;;;;;;;6.72;67.22;96288.56;5068891;28;20112;-49
2021/10/25 03:06:57;;;;;;;4.85;3.05;;;;;;;6.73;67.52;96286.72;5054611;28;20454;-45
2021/10/25 03:09:25;;;;;;;3.67;2.60;;;;;;;6.47;68.66;96291.75;5039860;28;20044;-46
2021/10/25 03:11:52;;;;;;;4.10;2.83;;;;;;;6.50;69.03;96291.13;5031056;28;20057;-46
2021/10/25 03:14:19;;;;;;;4.10;2.55;;;;;;;6.54;68.81;96292.97;5030165;28;20046;-45
2021/10/25 03:16:54;;;;;;;4.78;2.80;;;;;;;6.58;68.69;96297.75;5030706;28;20107;-45
2021/10/25 03:19:21;;;;;;;5.68;3.10;;;;;;;6.56;68.32;96284.56;5030870;28;20407;-50
2021/10/25 03:21:49;;;;;;;4.72;3.08;;;;;;;6.50;67.86;96291.97;5030793;28;20060;-48
2021/10/25 03:24:16;;;;;;;6.38;3.38;;;;;;;6.46;68.15;96290.94;5029855;28;20457;-46
2021/10/25 03:26:43;;;;;;;5.07;2.85;;;;;;;6.59;67.72;96292.06;5030580;28;20466;-50
2021/10/25 03:29:11;;;;;;;4.63;2.70;;;;;;;6.58;67.80;96298.53;5030640;28;20049;-47
2021/10/25 03:31:39;;;;;;;4.60;2.80;;;;;;;6.48;68.11;96304.09;5031711;28;20076;-49
2021/10/25 03:34:06;;;;;;;4.22;2.85;;;;;;;6.42;68.20;96297.22;5013509;28;20049;-50
2021/10/25 03:36:36;;;;;;;5.18;2.60;;;;;;;6.39;68.64;96290.53;5030542;28;20049;-50
2021/10/25 03:39:04;;;;;;;6.50;2.97;;;;;;;6.36;68.73;96293.03;5030318;28;20095;-50
2021/10/25 03:41:40;;;;;;;4.60;2.90;;;;;;;6.40;68.83;96302.06;5030659;28;20065;-50
2021/10/25 03:44:17;;;;;;;4.95;3.20;;;;;;;6.33;68.82;96291.72;5029809;28;20045;-52
2021/10/25 03:49:28;;;;;;;5.85;2.85;;;;;;;6.14;69.80;96299.81;5030085;28;20645;-52
2021/10/25 03:52:34;;;;;;;5.72;3.25;;;;;;;6.20;69.35;96298.66;5022935;28;20105;-52
2021/10/25 03:55:12;;;;;;;4.72;2.95;;;;;;;6.21;69.50;96300.28;5029818;28;20208;-50
2021/10/25 04:27:58;;;;;;;4.72;2.70;;;;;;;6.01;70.14;96274.56;5030196;28;20073;-52
2021/10/25 04:30:29;;;;;;;5.82;3.60;;;;;;;6.01;70.59;96274.56;5030168;28;20045;-52
2021/10/25 04:32:56;;;;;;;7.13;3.35;;;;;;;5.93;70.45;96274.41;5029999;28;20470;-50
2021/10/25 04:35:45;;;;;;;5.95;2.80;;;;;;;5.65;71.49;96274.25;5030077;28;20478;-46
2021/10/25 04:38:32;;;;;;;4.18;2.67;;;;;;;5.76;71.38;96269.56;5031005;28;20061;-47
2021/10/25 04:40:59;;;;;;;4.07;2.67;;;;;;;5.81;70.80;96266.78;5013792;28;20045;-50
2021/10/25 04:43:27;;;;;;;4.40;2.40;;;;;;;5.82;71.07;96277.25;5012903;28;20057;-45
2021/10/25 04:45:54;;;;;;;4.45;3.08;;;;;;;5.95;70.37;96272.25;5045187;28;20051;-51
2021/10/25 04:48:21;;;;;;;4.18;2.33;;;;;;;6.07;70.01;96277.94;5046927;28;20049;-51
2021/10/25 04:51:07;;;;;;;7.43;2.60;;;;;;;5.85;70.35;96275.88;5029839;28;20064;-50
2021/10/25 04:53:42;;;;;;;5.57;2.90;;;;;;;5.90;70.41;96273.06;5029267;28;20112;-50
2021/10/25 04:56:10;;;;;;;5.63;2.70;;;;;;;5.83;70.72;96278.81;5029743;28;20080;-48
2021/10/25 04:58:38;;;;;;;6.10;3.10;;;;;;;5.78;70.90;96272.72;5030763;28;20077;-47
2021/10/25 05:01:06;;;;;;;7.63;3.53;;;;;;;5.71;70.99;96269.63;5033254;28;20124;-47
2021/10/25 05:03:35;;;;;;;4.20;2.72;;;;;;;5.78;71.05;96262.00;5055402;28;20045;-47
2021/10/25 05:06:04;;;;;;;5.63;2.70;;;;;;;5.89;70.63;96271.50;5056699;28;20048;-47
2021/10/25 05:08:31;;;;;;;4.28;2.42;;;;;;;5.81;70.61;96264.09;5072161;28;20115;-50
2021/10/25 05:11:01;;;;;;;6.45;2.80;;;;;;;5.74;70.90;96266.34;5034426;28;20046;-49
2021/10/25 05:13:28;;;;;;;6.43;3.55;;;;;;;5.95;70.65;96270.34;5032209;28;20033;-51
2021/10/25 05:15:55;;;;;;;9.90;3.60;;;;;;;5.83;70.43;96267.28;5033302;28;20578;-51
2021/10/25 05:18:22;;;;;;;6.20;2.90;;;;;;;5.73;70.60;96256.72;5033077;28;20038;-51
2021/10/25 05:20:49;;;;;;;6.40;3.10;;;;;;;5.75;70.90;96259.88;5033092;28;20080;-50
2021/10/25 05:23:19;;;;;;;7.95;3.13;;;;;;;5.81;70.73;96264.88;5045903;28;20041;-49
2021/10/25 05:25:49;;;;;;;5.40;3.00;;;;;;;5.95;70.09;96269.56;5039815;28;20049;-53
2021/10/25 05:28:16;;;;;;;13.00;3.55;;;;;;;5.91;70.28;96271.97;5033032;28;20041;-50
2021/10/25 05:30:44;;;;;;;6.43;2.92;;;;;;;5.92;70.19;96260.16;5032649;28;20131;-46
2021/10/25 05:33:19;;;;;;;5.07;3.30;;;;;;;5.82;70.39;96271.88;5032031;28;20033;-46
2021/10/25 05:35:46;;;;;;;5.40;3.00;;;;;;;5.80;70.33;96271.34;5033862;28;20095;-46
2021/10/25 05:38:14;;;;;;;6.80;2.92;;;;;;;5.81;70.24;96264.88;5032916;28;20073;-47
2021/10/25 05:40:41;;;;;;;5.13;2.58;;;;;;;5.82;70.19;96271.88;5032883;28;20050;-46
2021/10/25 05:43:08;;;;;;;7.35;2.90;;;;;;;5.73;70.90;96267.47;5031933;28;20045;-51
2021/10/25 05:45:37;;;;;;;5.15;3.05;;;;;;;5.86;70.49;96256.75;5033975;28;20433;-48
2021/10/25 05:48:04;;;;;;;8.18;3.22;;;;;;;5.81;71.00;96262.19;5049847;28;20474;-46
2021/10/25 05:50:32;;;;;;;8.75;3.35;;;;;;;5.74;70.93;96264.47;5052420;28;20053;-46
2021/10/25 05:53:02;;;;;;;9.07;3.90;;;;;;;5.70;71.48;96268.84;5051680;28;20394;-49
2021/10/25 05:55:30;;;;;;;8.93;3.65;;;;;;;5.72;71.02;96255.94;5051156;28;20032;-47
2021/10/25 05:57:58;;;;;;;5.50;3.05;;;;;;;5.76;71.00;96256.13;5056021;28;20455;-46
2021/10/25 06:00:31;;;;;;;10.43;4.03;;;;;;;5.64;71.43;96261.94;5059794;28;20099;-48
2021/10/25 06:02:59;;;;;;;6.22;3.22;;;;;;;5.65;71.70;96255.47;5047169;28;20045;-46
2021/10/25 06:05:30;;;;;;;7.18;3.17;;;;;;;5.66;71.78;96262.47;5071981;28;20489;-47
2021/10/25 06:07:59;;;;;;;6.40;2.80;;;;;;;5.63;71.97;96260.34;5072196;28;20505;-46
2021/10/25 06:10:32;;;;;;;4.80;3.00;;;;;;;5.55;72.09;96258.31;5033481;28;20417;-49
2021/10/25 06:13:04;;;;;;;7.35;2.95;;;;;;;5.49;72.27;96265.69;5032012;28;20175;-48
2021/10/25 06:16:04;;;;;;;7.03;3.17;;;;;;;5.75;71.95;96263.41;5032925;28;20064;-51
2021/10/25 06:18:31;;;;;;;5.38;3.40;;;;;;;5.80;72.12;96265.97;5032275;28;20046;-51
2021/10/25 06:20:58;;;;;;;7.38;3.60;;;;;;;5.80;72.13;96263.28;5032533;28;20056;-51
2021/10/25 06:23:26;;;;;;;10.23;3.30;;;;;;;5.76;72.38;96256.94;5031947;28;20047;-49
2021/10/25 06:25:53;;;;;;;9.50;4.30;;;;;;;5.82;72.69;96263.03;5032237;28;20037;-49
2021/10/25 06:28:25;;;;;;;9.00;4.10;;;;;;;5.75;73.07;96271.44;5032375;28;20049;-50
2021/10/25 06:31:03;;;;;;;8.63;4.18;;;;;;;5.74;73.25;96274.41;5040616;28;20175;-53
2021/10/25 06:33:49;;;;;;;6.80;4.00;;;;;;;5.77;73.28;96271.16;5032907;28;20073;-50
2021/10/25 06:36:29;;;;;;;8.75;4.10;;;;;;;5.77;73.20;96269.25;5044324;28;20052;-50
2021/10/25 06:39:21;;;;;;;9.68;4.00;;;;;;;5.74;73.61;96272.53;5047754;28;20048;-50
2021/10/25 06:41:52;;;;;;;10.65;4.80;;;;;;;5.85;73.43;96279.34;5032655;28;20065;-47
2021/10/25 06:44:24;;;;;;;8.23;3.85;;;;;;;5.72;73.62;96274.72;5032008;28;20034;-47
2021/10/25 06:47:05;;;;;;;13.02;4.38;;;;;;;5.75;73.69;96276.00;5032434;28;20061;-50
2021/10/25 06:49:32;;;;;;;9.57;3.78;;;;;;;5.80;73.62;96273.25;5047148;28;20045;-48
2021/10/25 06:52:01;;;;;;;8.27;4.03;;;;;;;5.94;73.29;96276.00;5032454;28;20045;-49
2021/10/25 06:54:28;;;;;;;11.10;5.10;;;;;;;5.85;73.64;96273.97;5032209;28;20495;-46
2021/10/25 06:56:55;;;;;;;13.23;4.75;;;;;;;5.87;74.10;96273.66;5031580;28;20499;-47
2021/10/25 06:59:22;;;;;;;11.57;4.90;;;;;;;5.85;74.09;96275.88;5047379;28;20073;-46
2021/10/25 07:01:49;;;;;;;15.18;6.03;;;;;;;5.89;73.81;96271.50;5045499;28;20065;-50
2021/10/25 07:04:18;;;;;;;12.70;4.93;;;;;;;5.90;74.50;96274.97;5051410;28;20072;-46
2021/10/25 07:06:45;;;;;;;12.23;4.93;;;;;;;5.85;75.14;96273.19;5051357;28;20417;-50
2021/10/25 07:09:12;;;;;;;13.93;5.75;;;;;;;5.95;74.57;96269.56;5048025;28;20117;-47
2021/10/25 07:11:42;;;;;;;16.23;6.32;;;;;;;5.91;74.89;96274.66;5031463;28;20068;-50
2021/10/25 07:14:11;;;;;;;14.38;8.63;;;;;;;5.99;74.12;96279.41;5031024;28;20049;-47
2021/10/25 08:10:46;;;;;;;12.35;4.95;;;;;;;7.22;70.75;96298.63;5035261;28;20574;-50
2021/10/25 08:13:15;;;;;;;8.98;3.85;;;;;;;7.09;70.93;96300.25;5036009;28;20057;-47
2021/10/25 08:15:45;;;;;;;7.70;3.65;;;;;;;7.15;71.67;96293.66;5043590;28;20478;-47
2021/10/25 08:20:58;;;;;;;8.48;3.90;;;;;;;7.59;70.28;96300.22;5044802;28;20119;-52
2021/10/25 08:23:25;;;;;;;5.30;3.63;;;;;;;7.45;70.53;96299.47;5035424;28;20045;-51
2021/10/25 08:25:54;;;;;;;15.98;4.50;;;;;;;7.74;69.67;96309.88;5047219;28;20041;-52
2021/10/25 08:28:22;;;;;;;10.07;4.00;;;;;;;7.72;69.55;96310.16;5033969;28;20053;-53
2021/10/25 08:30:51;;;;;;;14.02;4.30;;;;;;;7.61;70.55;96308.81;5037770;28;20044;-48
2021/10/25 08:36:22;;;;;;;9.43;4.32;;;;;;;7.71;70.59;96308.59;5054022;28;20083;-51
2021/10/25 08:42:06;;;;;;;12.32;4.72;;;;;;;8.49;68.47;96300.25;5026771;28;20124;-47
2021/10/25 08:44:33;;;;;;;18.10;5.55;;;;;;;8.59;68.63;96300.00;5048386;28;20045;-46
2021/10/25 08:47:00;;;;;;;15.00;6.15;;;;;;;8.64;68.04;96302.56;5017668;28;20049;-47
2021/10/25 08:49:30;;;;;;;12.13;4.93;;;;;;;8.18;69.68;96306.38;5043848;28;20332;-48
2021/10/25 08:51:59;;;;;;;14.85;5.28;;;;;;;8.47;67.60;96299.75;5053750;28;20453;-48
2021/10/25 08:54:31;;;;;;;9.20;4.53;;;;;;;8.23;69.08;96296.59;5043650;28;20099;-49
2021/10/25 08:57:00;;;;;;;20.30;5.07;;;;;;;8.49;67.88;96297.56;5023304;28;20045;-49
2021/10/25 08:59:32;;;;;;;11.68;5.07;;;;;;;8.27;69.09;96302.97;5069654;28;20064;-51
2021/10/25 09:02:08;;;;;;;11.13;5.20;;;;;;;8.81;65.25;96295.66;5067060;28;20117;-49
2021/10/25 09:04:59;;;;;;;16.42;6.10;;;;;;;8.84;66.07;96300.44;5037637;28;20115;-49
2021/10/25 09:07:27;;;;;;;12.32;5.85;;;;;;;8.88;66.42;96299.47;5069686;28;20056;-50
2021/10/25 09:09:55;;;;;;;16.60;5.95;;;;;;;8.68;67.36;96296.53;5050164;28;20050;-48
2021/10/25 09:12:23;;;;;;;18.95;7.05;;;;;;;8.54;68.58;96296.63;5038947;28;20073;-51
2021/10/25 09:14:57;;;;;;;15.38;6.32;;;;;;;8.66;66.58;96292.25;5030049;28;20477;-50
2021/10/25 09:17:27;;;;;;;13.45;5.78;;;;;;;8.43;69.64;96296.09;5059578;28;20041;-48
2021/10/25 09:20:06;;;;;;;11.63;5.78;;;;;;;8.54;68.56;96302.03;5052025;28;20045;-51
2021/10/25 09:22:34;;;;;;;15.05;6.10;;;;;;;8.82;67.05;96295.31;5033252;28;20072;-48
2021/10/25 09:25:03;;;;;;;12.95;5.20;;;;;;;8.75;66.60;96296.91;5032826;28;20045;-49
2021/10/25 09:27:41;;;;;;;13.85;5.20;;;;;;;8.59;67.98;96302.69;5041329;28;20049;-51
2021/10/25 09:30:24;;;;;;;11.73;5.25;;;;;;;8.73;66.93;96288.31;5042214;28;20092;-51
2021/10/25 09:33:04;;;;;;;8.80;4.18;;;;;;;8.99;63.90;96286.50;5036312;28;20045;-50
2021/10/25 09:35:43;;;;;;;6.50;4.13;;;;;;;8.81;63.95;96290.25;5024681;28;20129;-52
2021/10/25 09:49:28;;;;;;;10.73;6.15;;;;;;;8.76;66.03;96288.47;5051264;28;20044;-49
2021/10/25 09:52:04;;;;;;;14.43;6.40;;;;;;;8.88;66.45;96287.91;5058834;28;20457;-50
2021/10/25 09:54:34;;;;;;;9.77;5.03;;;;;;;8.87;67.08;96278.19;5050342;28;20080;-51
2021/10/25 09:57:09;;;;;;;15.05;6.88;;;;;;;8.94;68.16;96283.94;5025057;28;20407;-55
2021/10/25 10:00:10;;;;;;;12.10;6.57;;;;;;;9.06;68.74;96286.81;5026143;28;20517;-51
2021/10/25 10:02:40;;;;;;;14.77;6.38;;;;;;;9.10;67.47;96293.22;5047209;28;20513;-50
2021/10/25 10:05:12;;;;;;;12.25;7.03;;;;;;;9.12;67.16;96285.56;5043210;28;20037;-52
2021/10/25 10:07:41;;;;;;;10.57;6.82;;;;;;;9.13;66.85;96280.97;5037741;28;20156;-49
2021/10/25 10:10:22;;;;;;;14.35;7.53;;;;;;;9.21;67.26;96279.41;5033208;28;20220;-50
2021/10/25 10:12:54;;;;;;;15.45;7.38;;;;;;;9.26;67.30;96279.25;5049971;28;20494;-54
2021/10/25 10:15:31;;;;;;;16.63;7.20;;;;;;;9.36;67.66;96279.75;5053223;28;20116;-53
2021/10/25 10:18:28;;;;;;;10.57;7.43;;;;;;;9.42;67.67;96271.50;5031642;28;20087;-48
2021/10/25 10:21:25;;;;;;;16.63;8.35;;;;;;;9.73;66.36;96274.06;5033286;28;20083;-51
2021/10/25 10:24:08;;;;;;;16.00;7.97;;;;;;;9.90;65.14;96268.63;5051642;28;20060;-52
2021/10/25 10:26:38;;;;;;;14.80;8.25;;;;;;;9.79;66.05;96268.19;5048064;28;20446;-54
2021/10/25 10:29:17;;;;;;;13.77;8.70;;;;;;;10.02;65.58;96270.72;5015677;28;20462;-50
2021/10/25 10:32:12;;;;;;;15.52;8.20;;;;;;;9.93;66.28;96269.91;5033130;28;20061;-53
2021/10/25 10:35:03;;;;;;;12.45;7.85;;;;;;;9.89;67.13;96264.34;5001693;28;20514;-54
2021/10/25 10:38:02;;;;;;;16.05;8.23;;;;;;;10.23;62.43;96260.00;5011816;28;20416;-46
2021/10/25 10:40:53;;;;;;;15.43;8.50;;;;;;;9.98;64.28;96256.25;5016742;28;20057;-48
2021/10/25 10:43:24;;;;;;;15.43;8.05;;;;;;;9.90;64.58;96243.53;5031624;28;20107;-46
2021/10/25 10:46:11;;;;;;;13.45;8.43;;;;;;;10.06;65.62;96241.91;5040730;28;20029;-49
2021/10/25 10:48:41;;;;;;;16.60;8.50;;;;;;;10.15;67.02;96240.00;5045236;28;20052;-46
2021/10/25 10:51:15;;;;;;;20.33;8.60;;;;;;;10.21;65.65;96237.91;5048901;28;20041;-49
2021/10/25 10:53:54;;;;;;;17.73;9.05;;;;;;;10.19;65.71;96248.25;5032769;28;20041;-45
2021/10/25 10:56:24;;;;;;;14.23;9.10;;;;;;;10.31;65.68;96244.94;5043194;28;20138;-46
2021/10/25 11:01:33;;;;;;;15.05;10.23;;;;;;;10.48;64.57;96245.66;5045325;28;20057;-47
2021/10/25 11:04:04;;;;;;;15.95;10.20;;;;;;;10.46;65.81;96245.19;5049772;28;20294;-48
2021/10/25 11:06:37;;;;;;;16.85;11.38;;;;;;;10.48;66.32;96244.88;5051435;28;20064;-53
2021/10/25 11:09:09;;;;;;;14.23;9.00;;;;;;;10.52;63.88;96233.06;5034761;28;20132;-47
2021/10/25 11:11:39;;;;;;;15.75;9.23;;;;;;;10.60;64.52;96236.06;5031225;28;20450;-50
2021/10/25 11:14:13;;;;;;;19.05;10.95;;;;;;;10.89;63.72;96232.59;5048663;28;20128;-48
2021/10/25 11:17:06;;;;;;;17.52;10.15;;;;;;;10.88;63.14;96229.06;5052207;28;20502;-55
2021/10/25 11:19:33;;;;;;;11.90;8.82;;;;;;;10.71;64.64;96229.16;5046056;28;20045;-54
2021/10/25 11:22:03;;;;;;;15.80;9.00;;;;;;;10.83;64.92;96221.16;5050914;28;20164;-54
2021/10/25 11:24:30;;;;;;;15.05;9.75;;;;;;;10.97;63.89;96219.00;5048091;28;20069;-53
2021/10/25 11:26:59;;;;;;;18.23;10.10;;;;;;;11.19;62.52;96212.50;5031441;28;20041;-49
2021/10/25 11:29:27;;;;;;;17.55;9.43;;;;;;;11.15;62.39;96206.16;5050612;28;20050;-52
2021/10/25 11:31:56;;;;;;;17.00;9.68;;;;;;;11.17;62.89;96211.22;5032044;28;20084;-52
2021/10/25 11:34:29;;;;;;;13.70;9.07;;;;;;;11.08;64.05;96213.19;5017525;28;20083;-49
2021/10/25 11:37:06;;;;;;;17.10;10.38;;;;;;;11.24;62.65;96203.38;5031067;28;20399;-47
2021/10/25 11:39:43;;;;;;;16.30;9.45;;;;;;;11.38;61.28;96208.56;5049918;28;20409;-55
2021/10/25 11:42:13;;;;;;;19.15;9.82;;;;;;;11.37;61.33;96209.66;5051902;28;20065;-49
2021/10/25 11:44:42;;;;;;;16.50;9.45;;;;;;;11.28;62.19;96203.50;5042111;28;20048;-55
2021/10/25 11:47:23;;;;;;;15.00;8.85;;;;;;;11.11;64.25;96205.22;5031835;28;20073;-51
2021/10/25 11:50:07;;;;;;;14.80;8.60;;;;;;;11.09;63.72;96196.63;5031744;28;20466;-54
2021/10/25 11:52:59;;;;;;;19.35;10.20;;;;;;;10.90;63.72;96207.91;5038868;28;20037;-51
2021/10/25 11:55:31;;;;;;;14.77;8.77;;;;;;;10.90;65.38;96207.09;5037253;28;20151;-46
2021/10/25 11:58:00;;;;;;;20.40;11.02;;;;;;;11.12;62.38;96206.03;5043174;28;20045;-46
2021/10/25 12:00:34;;;;;;;14.38;9.30;;;;;;;11.06;62.78;96199.22;5036285;28;20065;-47
2021/10/25 12:03:27;;;;;;;15.98;9.10;;;;;;;10.90;63.80;96188.94;5029884;28;20085;-48
2021/10/25 12:05:57;;;;;;;16.98;9.43;;;;;;;10.94;64.32;96189.88;5030466;28;20107;-48
2021/10/25 12:08:24;;;;;;;13.52;9.60;;;;;;;11.33;62.08;96201.41;5035147;28;20049;-52
2021/10/25 12:10:56;;;;;;;12.95;8.68;;;;;;;11.02;63.24;96198.25;5050466;28;20414;-50
2021/10/25 12:13:23;;;;;;;16.58;9.40;;;;;;;11.04;63.81;96198.75;5049243;28;20053;-52
2021/10/25 12:16:00;;;;;;;13.18;8.70;;;;;;;10.95;64.99;96191.47;5048527;28;20457;-47
2021/10/25 12:18:27;;;;;;;15.00;9.98;;;;;;;11.02;64.20;96179.31;5031498;28;20045;-47
2021/10/25 12:20:55;;;;;;;12.77;8.48;;;;;;;10.93;64.62;96180.19;5031577;28;20073;-48
2021/10/25 12:23:28;;;;;;;12.18;7.88;;;;;;;10.89;65.11;96176.53;5032411;28;20152;-51
2021/10/25 12:26:04;;;;;;;13.05;8.10;;;;;;;10.90;65.24;96178.13;5031212;28;20034;-47
2021/10/25 12:28:34;;;;;;;16.27;8.98;;;;;;;10.98;63.87;96176.47;5034264;28;20494;-47
2021/10/25 12:31:09;;;;;;;14.25;8.95;;;;;;;10.96;64.46;96176.03;5030084;28;20473;-48
2021/10/25 12:33:42;;;;;;;13.85;10.20;;;;;;;11.28;63.38;96173.72;5017479;28;20103;-48
2021/10/25 12:36:23;;;;;;;12.38;8.73;;;;;;;11.43;62.25;96176.63;5051135;28;20095;-48
2021/10/25 12:38:54;;;;;;;14.35;8.38;;;;;;;11.07;64.15;96165.59;5031286;28;20044;-54
2021/10/25 12:41:22;;;;;;;12.05;7.93;;;;;;;10.95;66.07;96158.16;5050440;28;20044;-54
2021/10/25 12:43:54;;;;;;;14.75;8.25;;;;;;;10.86;65.44;96163.66;5044810;28;20495;-53
2021/10/25 12:46:29;;;;;;;10.43;8.07;;;;;;;10.83;66.18;96171.66;5031305;28;20042;-52
2021/10/25 12:48:56;;;;;;;13.77;8.13;;;;;;;10.83;66.35;96174.34;5044499;28;20079;-52
2021/10/25 12:51:42;;;;;;;10.98;7.57;;;;;;;10.86;65.88;96179.13;5049960;28;20053;-55
2021/10/25 12:54:14;;;;;;;16.75;8.98;;;;;;;11.13;64.75;96169.69;5030788;28;20053;-54
2021/10/25 12:56:43;;;;;;;13.95;7.78;;;;;;;11.11;65.11;96161.09;5030760;28;20128;-55
2021/10/25 12:59:12;;;;;;;24.10;9.70;;;;;;;11.13;65.20;96164.28;5032217;28;20049;-55
2021/10/25 13:01:54;;;;;;;13.45;8.13;;;;;;;10.96;67.44;96165.19;5030748;28;20140;-53
2021/10/25 13:04:21;;;;;;;14.10;7.75;;;;;;;10.87;68.63;96162.53;5029641;28;20045;-51
2021/10/25 13:06:49;;;;;;;11.82;8.32;;;;;;;11.14;65.37;96163.16;5029954;28;20092;-47
2021/10/25 13:09:16;;;;;;;14.40;8.43;;;;;;;11.08;65.85;96162.56;5030851;28;20136;-48
2021/10/25 13:11:45;;;;;;;13.48;8.23;;;;;;;10.99;67.39;96175.38;5029771;28;20136;-46
2021/10/25 13:14:13;;;;;;;15.48;8.95;;;;;;;11.15;66.33;96170.16;5030594;28;20049;-46
2021/10/25 13:16:44;;;;;;;12.95;8.30;;;;;;;11.23;65.45;96170.09;5030678;28;20038;-48
2021/10/25 13:19:14;;;;;;;14.30;8.18;;;;;;;11.03;66.82;96162.75;5047077;28;20052;-47
2021/10/25 13:21:42;;;;;;;14.95;8.77;;;;;;;10.98;66.52;96160.22;5034497;28;20049;-46
2021/10/25 13:24:10;;;;;;;10.63;7.75;;;;;;;10.93;66.39;96160.44;5050795;28;20041;-47
2021/10/25 13:26:44;;;;;;;14.82;9.30;;;;;;;11.20;65.86;96159.13;5042746;28;20041;-48
2021/10/25 13:29:11;;;;;;;17.23;8.25;;;;;;;11.02;66.98;96163.88;5034403;28;20168;-47
2021/10/25 13:31:38;;;;;;;12.82;7.70;;;;;;;11.06;66.60;96153.19;5034185;28;20099;-47
2021/10/25 13:34:05;;;;;;;14.70;8.25;;;;;;;11.02;68.15;96160.34;5051103;28;20136;-47
2021/10/25 13:36:33;;;;;;;10.50;7.05;;;;;;;11.00;68.10;96144.47;5054102;28;20128;-49
2021/10/25 13:39:11;;;;;;;14.15;8.77;;;;;;;11.42;64.87;96147.94;5034702;28;20099;-51
2021/10/25 13:41:40;;;;;;;14.70;8.40;;;;;;;11.22;65.32;96137.94;5034128;28;20045;-48
2021/10/25 13:44:07;;;;;;;11.43;7.28;;;;;;;10.99;68.20;96127.41;5041055;28;20041;-47
2021/10/25 13:46:35;;;;;;;9.45;7.60;;;;;;;10.98;66.92;96133.97;5033241;28;20087;-48